Time;durP1;ratioP1;P1;durP2;ratioP2;P2;SDS_P1;SDS_P2;PMS_P1;PMS_P2;Temp;Humidity;BMP_temperature;BMP_pressure;BME280_temperature;BME280_humidity;BME280_pressure;Samples;Min_cycle;Max_cycle;Signal;HPM_P1;HPM_P2
2023/08/31 00:00:25;;;;;;;11.43;2.95;;;11.00;99.90;;;;;;5012981;28;20054;-75
2023/08/31 00:02:51;;;;;;;8.57;2.70;;;11.00;99.90;;;;;;4974308;28;20046;-75
2023/08/31 00:05:18;;;;;;;10.05;2.60;;;11.10;99.90;;;;;;5011986;28;20042;-73
2023/08/31 00:07:44;;;;;;;10.43;2.60;;;11.10;99.90;;;;;;4960691;28;20045;-73
2023/08/31 00:10:11;;;;;;;9.30;2.45;;;11.10;99.90;;;;;;4994428;28;20065;-73
2023/08/31 00:12:38;;;;;;;9.27;2.28;;;11.10;99.90;;;;;;4952565;28;20051;-74
2023/08/31 00:15:04;;;;;;;10.98;2.25;;;11.10;99.90;;;;;;4995430;28;20054;-74
2023/08/31 00:17:30;;;;;;;9.00;2.00;;;11.20;99.90;;;;;;4972169;28;20121;-74
2023/08/31 00:19:56;;;;;;;9.75;2.10;;;11.20;99.90;;;;;;5005345;28;20053;-75
2023/08/31 00:22:22;;;;;;;7.68;1.80;;;11.20;99.90;;;;;;4960575;28;20085;-75
2023/08/31 00:24:49;;;;;;;11.10;2.00;;;11.30;99.90;;;;;;4989159;28;20479;-75
2023/08/31 00:27:15;;;;;;;11.00;1.92;;;11.30;99.90;;;;;;4961539;28;20606;-77
2023/08/31 00:29:41;;;;;;;9.10;2.00;;;11.30;99.90;;;;;;4971243;28;20041;-76
2023/08/31 00:32:07;;;;;;;8.60;1.83;;;11.30;99.90;;;;;;4950329;28;20057;-75
2023/08/31 00:34:33;;;;;;;9.80;2.30;;;11.30;99.90;;;;;;4998836;28;20755;-76
2023/08/31 00:36:59;;;;;;;11.77;2.63;;;11.30;99.90;;;;;;4944959;28;20054;-75
2023/08/31 00:39:27;;;;;;;9.20;1.75;;;11.20;99.90;;;;;;4973466;28;20058;-76
2023/08/31 00:41:54;;;;;;;7.20;1.80;;;11.20;99.90;;;;;;4928943;28;20058;-75
2023/08/31 00:44:20;;;;;;;13.27;2.10;;;11.20;99.90;;;;;;4977798;28;20271;-75
2023/08/31 00:46:46;;;;;;;10.35;1.70;;;11.10;99.90;;;;;;4973885;28;20050;-75
2023/08/31 00:49:14;;;;;;;8.77;1.50;;;11.10;99.90;;;;;;4980543;28;20427;-75
2023/08/31 00:51:40;;;;;;;7.20;1.60;;;11.10;99.90;;;;;;5008204;28;20072;-75
2023/08/31 00:54:06;;;;;;;8.73;1.80;;;11.00;99.90;;;;;;4937132;28;24514;-75
2023/08/31 00:56:33;;;;;;;10.13;1.60;;;11.00;99.90;;;;;;4985829;28;20065;-76
2023/08/31 00:59:00;;;;;;;9.15;1.60;;;10.90;99.90;;;;;;4980184;28;20060;-75
2023/08/31 01:01:48;;;;;;;8.15;1.50;;;10.90;99.90;;;;;;5004916;28;20050;-75
2023/08/31 01:04:31;;;;;;;8.75;1.52;;;10.90;99.90;;;;;;4938371;28;20053;-76
2023/08/31 01:07:11;;;;;;;7.22;1.50;;;10.80;99.90;;;;;;4969255;28;20073;-76
2023/08/31 01:09:52;;;;;;;7.93;1.50;;;10.80;99.90;;;;;;5000147;28;20049;-74
2023/08/31 01:12:30;;;;;;;9.13;1.40;;;10.70;99.90;;;;;;4970838;28;20053;-76
2023/08/31 01:15:04;;;;;;;6.95;1.50;;;10.70;99.90;;;;;;5012194;28;20062;-76
2023/08/31 01:17:32;;;;;;;10.32;1.50;;;10.70;99.90;;;;;;4964864;28;20057;-76
2023/08/31 01:20:00;;;;;;;9.02;1.50;;;10.60;99.90;;;;;;5006104;28;20440;-76
2023/08/31 01:22:42;;;;;;;5.85;1.30;;;10.60;99.90;;;;;;4968463;28;20053;-75
2023/08/31 01:25:09;;;;;;;7.40;1.48;;;10.60;99.90;;;;;;5004643;28;20058;-75
2023/08/31 01:27:37;;;;;;;9.93;1.42;;;10.60;99.90;;;;;;4965151;28;20093;-75
2023/08/31 01:30:04;;;;;;;6.15;1.30;;;10.60;99.90;;;;;;4996595;28;20054;-75
2023/08/31 01:32:34;;;;;;;6.38;1.25;;;10.60;99.90;;;;;;4968542;28;20100;-75
2023/08/31 01:35:03;;;;;;;9.05;1.65;;;10.60;99.90;;;;;;4996844;28;20431;-75
2023/08/31 01:37:52;;;;;;;8.52;1.50;;;10.50;99.90;;;;;;4962265;28;20074;-75
2023/08/31 01:40:35;;;;;;;7.45;1.27;;;10.50;99.90;;;;;;4996547;28;20642;-75
2023/08/31 01:43:03;;;;;;;8.85;1.55;;;10.50;99.90;;;;;;4962623;28;20050;-75
2023/08/31 01:45:33;;;;;;;9.98;1.48;;;10.50;99.90;;;;;;5000700;28;20046;-75
2023/08/31 01:47:59;;;;;;;10.60;1.40;;;10.50;99.90;;;;;;4968809;28;20056;-75
2023/08/31 01:50:25;;;;;;;7.88;1.60;;;10.50;99.90;;;;;;5010546;28;20061;-75
2023/08/31 01:52:55;;;;;;;7.32;1.52;;;10.50;99.90;;;;;;4957026;28;152309;-75
2023/08/31 01:55:22;;;;;;;7.63;1.40;;;10.50;99.90;;;;;;5007025;28;20061;-75
2023/08/31 01:57:48;;;;;;;8.68;1.30;;;10.50;99.90;;;;;;4959326;28;20057;-75
2023/08/31 02:00:16;;;;;;;8.77;1.48;;;10.60;99.90;;;;;;5006988;28;20046;-75
2023/08/31 02:02:43;;;;;;;9.60;1.42;;;10.60;99.90;;;;;;4950077;28;20041;-74
2023/08/31 02:05:09;;;;;;;6.97;1.58;;;10.60;99.90;;;;;;5003116;28;20073;-75
2023/08/31 02:07:36;;;;;;;6.55;1.30;;;10.50;99.90;;;;;;4962475;28;20047;-74
2023/08/31 02:10:06;;;;;;;6.82;1.52;;;10.60;99.90;;;;;;5003427;28;20687;-74
2023/08/31 02:12:33;;;;;;;8.27;1.33;;;10.60;99.90;;;;;;4969395;28;20049;-74
2023/08/31 02:14:59;;;;;;;12.13;1.70;;;10.60;99.90;;;;;;5003180;28;20054;-75
2023/08/31 02:17:25;;;;;;;7.80;1.40;;;10.60;99.90;;;;;;4965392;28;20042;-75
2023/08/31 02:19:51;;;;;;;8.10;1.40;;;10.60;99.90;;;;;;4985626;28;20072;-76
2023/08/31 02:22:18;;;;;;;8.25;1.33;;;10.60;99.90;;;;;;4960526;28;20531;-77
2023/08/31 02:24:44;;;;;;;8.25;1.52;;;10.60;99.90;;;;;;4999526;28;20496;-75
2023/08/31 02:27:10;;;;;;;8.02;1.45;;;10.60;99.90;;;;;;4971644;28;20057;-75
2023/08/31 02:29:36;;;;;;;7.40;1.33;;;10.60;99.90;;;;;;5004706;28;20049;-75
2023/08/31 02:32:06;;;;;;;9.07;1.50;;;10.50;99.90;;;;;;4967057;28;20057;-75
2023/08/31 02:34:32;;;;;;;7.45;1.73;;;10.50;99.90;;;;;;4968686;28;20069;-74
2023/08/31 02:36:58;;;;;;;7.95;1.58;;;10.60;99.90;;;;;;4948347;28;20541;-75
2023/08/31 02:39:24;;;;;;;6.65;1.80;;;10.50;99.90;;;;;;5003557;28;20050;-74
2023/08/31 02:41:50;;;;;;;7.85;1.70;;;10.60;99.90;;;;;;4974666;28;20049;-75
2023/08/31 02:44:17;;;;;;;9.02;2.08;;;10.60;99.90;;;;;;4966713;28;20057;-74
2023/08/31 02:46:43;;;;;;;7.78;1.80;;;10.60;99.90;;;;;;4965027;28;20046;-74
2023/08/31 02:49:09;;;;;;;9.55;2.30;;;10.60;99.90;;;;;;4940489;28;20083;-76
2023/08/31 02:51:35;;;;;;;7.25;2.10;;;10.60;99.90;;;;;;4981092;28;20058;-75
2023/08/31 02:54:03;;;;;;;8.40;2.03;;;10.60;99.90;;;;;;4959745;28;241409;-75
2023/08/31 02:56:29;;;;;;;8.93;2.42;;;10.50;99.90;;;;;;5004018;28;20087;-75
2023/08/31 02:58:55;;;;;;;8.93;2.40;;;10.50;99.90;;;;;;4967628;28;20053;-76
2023/08/31 03:01:23;;;;;;;7.93;2.20;;;10.50;99.90;;;;;;5005801;28;20061;-76
2023/08/31 03:03:49;;;;;;;8.35;2.38;;;10.50;99.90;;;;;;4976852;28;20060;-75
2023/08/31 03:06:15;;;;;;;9.55;2.50;;;10.50;99.90;;;;;;5005939;28;20522;-76
2023/08/31 03:08:41;;;;;;;8.85;2.80;;;10.50;99.90;;;;;;4963902;28;20113;-75
2023/08/31 03:11:07;;;;;;;10.02;2.70;;;10.50;99.90;;;;;;5008218;28;20046;-75
2023/08/31 03:13:34;;;;;;;8.23;2.53;;;10.50;99.90;;;;;;4964615;28;20407;-75
2023/08/31 03:16:01;;;;;;;9.77;2.65;;;10.50;99.90;;;;;;5003815;28;20057;-75
2023/08/31 03:18:27;;;;;;;8.60;2.83;;;10.50;99.90;;;;;;4948892;28;20054;-75
2023/08/31 03:20:55;;;;;;;9.27;2.47;;;10.50;99.90;;;;;;5004516;28;20062;-76
2023/08/31 03:23:21;;;;;;;8.88;2.50;;;10.60;99.90;;;;;;4966140;28;20118;-76
2023/08/31 03:25:47;;;;;;;10.82;3.20;;;10.60;99.90;;;;;;5006681;28;20050;-75
2023/08/31 03:28:13;;;;;;;9.95;2.60;;;10.70;99.90;;;;;;4978304;28;20818;-75
2023/08/31 03:30:39;;;;;;;7.45;2.53;;;10.70;99.90;;;;;;4991947;28;20068;-75
2023/08/31 03:33:05;;;;;;;8.43;2.67;;;10.70;99.90;;;;;;4968744;28;20058;-75
2023/08/31 03:35:32;;;;;;;9.25;2.63;;;10.80;99.90;;;;;;4999618;28;20069;-75
2023/08/31 03:37:59;;;;;;;9.90;2.75;;;10.80;99.90;;;;;;4975322;28;20518;-75
2023/08/31 03:40:25;;;;;;;9.15;2.70;;;10.80;99.90;;;;;;5009705;28;20049;-74
2023/08/31 03:42:52;;;;;;;8.32;2.75;;;10.90;99.90;;;;;;4972334;28;20053;-74
2023/08/31 03:45:18;;;;;;;9.82;3.03;;;10.90;99.90;;;;;;5003594;28;20057;-75
2023/08/31 03:47:44;;;;;;;8.77;3.00;;;10.90;99.90;;;;;;4965278;28;20057;-75
2023/08/31 03:50:10;;;;;;;9.30;2.88;;;10.90;99.90;;;;;;4995048;28;20507;-75
2023/08/31 03:52:36;;;;;;;8.50;3.00;;;11.00;99.90;;;;;;4950080;28;144245;-74
2023/08/31 03:55:03;;;;;;;9.43;3.40;;;11.00;99.90;;;;;;5001170;28;20057;-75
2023/08/31 03:57:29;;;;;;;8.65;3.78;;;11.00;99.90;;;;;;4968289;28;20056;-75
2023/08/31 03:59:55;;;;;;;10.07;4.53;;;11.00;99.90;;;;;;4990475;28;20057;-75
2023/08/31 04:02:23;;;;;;;10.25;4.68;;;11.10;99.90;;;;;;4966908;28;20021;-75
2023/08/31 04:04:49;;;;;;;11.38;4.50;;;11.10;99.90;;;;;;5011172;28;20030;-75
2023/08/31 04:07:16;;;;;;;9.48;4.63;;;11.10;99.90;;;;;;4962842;28;20057;-75
2023/08/31 04:09:42;;;;;;;13.75;5.75;;;11.10;99.90;;;;;;4982230;28;20061;-75
2023/08/31 04:12:08;;;;;;;11.55;5.47;;;11.10;99.90;;;;;;4947367;28;20055;-76
2023/08/31 04:14:34;;;;;;;11.88;5.65;;;11.10;99.90;;;;;;4983178;28;20062;-75
2023/08/31 04:17:00;;;;;;;13.55;5.97;;;11.10;99.90;;;;;;4946971;28;20054;-76
2023/08/31 04:19:26;;;;;;;13.15;6.10;;;11.10;99.90;;;;;;4966506;28;20046;-75
2023/08/31 04:21:52;;;;;;;12.82;7.05;;;11.10;99.90;;;;;;4930133;28;20053;-75
2023/08/31 04:24:18;;;;;;;12.68;7.20;;;11.00;99.90;;;;;;4978306;28;20054;-75
2023/08/31 04:26:45;;;;;;;14.27;7.25;;;11.10;99.90;;;;;;4983007;28;20057;-76
2023/08/31 04:29:11;;;;;;;12.40;6.90;;;11.00;99.90;;;;;;4975014;28;20061;-76
2023/08/31 04:31:39;;;;;;;13.43;7.47;;;11.00;99.90;;;;;;5008891;28;20053;-75
2023/08/31 04:34:07;;;;;;;13.82;8.10;;;10.90;99.90;;;;;;4953778;28;20073;-74
2023/08/31 04:36:33;;;;;;;13.88;8.00;;;11.00;99.90;;;;;;5005793;28;20054;-76
2023/08/31 04:38:59;;;;;;;14.45;8.23;;;10.90;99.90;;;;;;4967825;28;20050;-77
2023/08/31 04:41:25;;;;;;;16.08;8.93;;;10.90;99.90;;;;;;5006933;28;20503;-75
2023/08/31 04:43:52;;;;;;;18.23;9.55;;;10.90;99.90;;;;;;4964974;28;20046;-74
2023/08/31 04:46:18;;;;;;;16.00;9.52;;;10.90;99.90;;;;;;5005740;28;20045;-74
2023/08/31 04:48:44;;;;;;;16.42;9.50;;;10.90;99.90;;;;;;4945711;28;20090;-75
2023/08/31 04:51:30;;;;;;;19.67;9.90;;;10.90;99.90;;;;;;5004707;28;20530;-75
2023/08/31 04:53:56;;;;;;;18.38;10.45;;;10.80;99.90;;;;;;4946569;28;76974;-73
2023/08/31 04:56:23;;;;;;;16.17;10.13;;;10.90;99.90;;;;;;5004485;28;20064;-75
2023/08/31 04:58:49;;;;;;;17.83;10.02;;;10.90;99.90;;;;;;4961979;28;20054;-74
2023/08/31 05:01:15;;;;;;;16.23;9.77;;;10.80;99.90;;;;;;5009056;28;20057;-75
2023/08/31 05:03:42;;;;;;;18.10;11.05;;;10.80;99.90;;;;;;4935745;28;20082;-74
2023/08/31 05:06:08;;;;;;;18.27;10.70;;;10.80;99.90;;;;;;4983471;28;20047;-76
2023/08/31 05:08:34;;;;;;;18.33;10.18;;;10.80;99.90;;;;;;4976924;28;20061;-74
2023/08/31 05:11:00;;;;;;;17.55;10.23;;;10.80;99.90;;;;;;4984539;28;20543;-75
2023/08/31 05:13:26;;;;;;;16.23;10.77;;;10.80;99.90;;;;;;4957773;28;20046;-74
2023/08/31 05:15:52;;;;;;;17.08;9.88;;;10.80;99.90;;;;;;5007489;28;20050;-74
2023/08/31 05:18:18;;;;;;;16.85;10.57;;;10.80;99.90;;;;;;4963648;28;20924;-75
2023/08/31 05:20:45;;;;;;;21.02;10.52;;;10.80;99.90;;;;;;4993841;28;20057;-76
2023/08/31 05:23:11;;;;;;;17.35;10.02;;;11.10;99.90;;;;;;4959360;28;20045;-76
2023/08/31 05:25:44;;;;;;;16.35;8.77;;;11.40;99.90;;;;;;4985858;28;20042;-75
2023/08/31 05:28:11;;;;;;;15.25;8.25;;;11.60;99.90;;;;;;4954740;28;20050;-75
2023/08/31 05:30:45;;;;;;;15.27;7.72;;;11.70;99.90;;;;;;4977694;28;20062;-74
2023/08/31 05:33:12;;;;;;;14.63;7.70;;;11.80;99.90;;;;;;4951998;28;20054;-74
2023/08/31 05:35:38;;;;;;;14.68;6.72;;;12.00;99.90;;;;;;5002221;28;20075;-75
2023/08/31 05:38:04;;;;;;;15.38;6.40;;;12.20;99.90;;;;;;4939246;28;20053;-75
2023/08/31 05:40:30;;;;;;;14.52;6.00;;;12.30;99.90;;;;;;4993883;28;20051;-75
2023/08/31 05:42:56;;;;;;;11.75;5.60;;;12.50;99.90;;;;;;4942206;28;20042;-75
2023/08/31 05:45:23;;;;;;;11.15;5.30;;;12.60;99.90;;;;;;4985648;28;20046;-76
2023/08/31 05:47:49;;;;;;;15.90;5.80;;;12.70;99.90;;;;;;4949865;28;20050;-76
2023/08/31 05:50:15;;;;;;;10.85;4.85;;;12.90;99.90;;;;;;4984700;28;20057;-74
2023/08/31 05:52:43;;;;;;;11.32;4.80;;;13.00;99.90;;;;;;4918140;28;200960;-74
2023/08/31 05:55:10;;;;;;;13.30;4.70;;;13.20;99.90;;;;;;4991333;28;20062;-76
2023/08/31 05:57:37;;;;;;;9.57;4.22;;;13.40;99.90;;;;;;4951065;28;20052;-76
2023/08/31 06:00:07;;;;;;;9.60;4.10;;;13.60;99.90;;;;;;4998861;28;20061;-75
2023/08/31 06:02:33;;;;;;;12.02;4.20;;;13.80;99.90;;;;;;4967748;28;20041;-75
2023/08/31 06:04:59;;;;;;;12.77;4.55;;;13.90;99.90;;;;;;5003629;28;20060;-75
2023/08/31 06:07:25;;;;;;;10.20;4.25;;;14.00;99.90;;;;;;4970327;28;20057;-75
2023/08/31 06:09:51;;;;;;;10.38;4.30;;;14.00;99.90;;;;;;5002764;28;20057;-75
2023/08/31 06:12:17;;;;;;;9.68;3.53;;;14.20;99.90;;;;;;4969420;28;20671;-75
2023/08/31 06:14:43;;;;;;;8.57;3.35;;;14.40;99.90;;;;;;5009571;28;20061;-74
2023/08/31 06:17:12;;;;;;;10.48;3.58;;;14.40;99.90;;;;;;4955159;28;20049;-75
2023/08/31 06:19:39;;;;;;;12.02;3.58;;;14.50;99.90;;;;;;5001648;28;20050;-75
2023/08/31 06:22:06;;;;;;;7.65;3.40;;;14.50;99.90;;;;;;4967378;28;20050;-74
2023/08/31 06:24:32;;;;;;;12.15;3.35;;;14.60;99.90;;;;;;5005206;28;20050;-75
2023/08/31 06:26:59;;;;;;;8.55;2.90;;;14.60;99.90;;;;;;4988798;28;20058;-74
2023/08/31 06:29:25;;;;;;;11.45;3.10;;;14.70;99.90;;;;;;4997215;28;20125;-75
2023/08/31 06:31:51;;;;;;;9.65;2.80;;;14.90;99.90;;;;;;4969343;28;20075;-75
2023/08/31 06:34:17;;;;;;;10.70;2.60;;;15.00;99.90;;;;;;4998144;28;20050;-74
2023/08/31 06:36:43;;;;;;;9.93;2.50;;;15.20;99.90;;;;;;5021391;28;20073;-74
2023/08/31 06:39:09;;;;;;;8.15;2.00;;;15.40;99.90;;;;;;4967465;28;20045;-74
2023/08/31 06:41:35;;;;;;;9.82;2.35;;;15.50;99.90;;;;;;4985724;28;20053;-75
2023/08/31 06:44:05;;;;;;;9.00;2.00;;;15.60;99.90;;;;;;4939601;28;20041;-74
2023/08/31 06:46:37;;;;;;;8.35;2.20;;;15.60;99.90;;;;;;5000155;28;20050;-74
2023/08/31 06:49:04;;;;;;;7.00;1.73;;;15.70;99.90;;;;;;4981680;28;20526;-74
2023/08/31 06:51:32;;;;;;;7.80;1.65;;;15.80;99.90;;;;;;5007049;28;20053;-74
2023/08/31 06:54:07;;;;;;;7.32;1.60;;;15.90;99.90;;;;;;4961540;28;21030;-74
2023/08/31 06:56:34;;;;;;;10.40;1.77;;;16.10;99.90;;;;;;5003107;28;20060;-76
2023/08/31 06:59:00;;;;;;;8.52;1.80;;;16.30;99.90;;;;;;4958603;28;20415;-74
2023/08/31 07:01:29;;;;;;;7.85;1.60;;;16.40;99.90;;;;;;4985473;28;20058;-76
2023/08/31 07:03:55;;;;;;;7.32;1.52;;;16.30;99.90;;;;;;4966625;28;20050;-75
2023/08/31 07:06:22;;;;;;;7.97;2.13;;;16.40;99.90;;;;;;5005928;28;20054;-75
2023/08/31 07:08:49;;;;;;;9.40;1.60;;;16.40;99.90;;;;;;4924158;28;20417;-74
2023/08/31 07:11:15;;;;;;;10.00;1.63;;;16.50;99.90;;;;;;5006631;28;20496;-75
2023/08/31 07:13:41;;;;;;;9.13;1.70;;;16.50;99.90;;;;;;4953604;28;20053;-76
2023/08/31 07:16:07;;;;;;;7.90;1.50;;;16.40;99.90;;;;;;5001454;28;20046;-74
2023/08/31 07:18:35;;;;;;;7.90;1.30;;;16.50;99.90;;;;;;4977326;28;20061;-73
2023/08/31 07:21:01;;;;;;;10.55;1.60;;;16.40;99.90;;;;;;5004884;28;20057;-74
2023/08/31 07:23:27;;;;;;;9.07;1.20;;;16.70;99.90;;;;;;4975028;28;20042;-74
2023/08/31 07:25:57;;;;;;;9.95;1.50;;;17.00;99.90;;;;;;5002833;28;20080;-74
2023/08/31 07:28:23;;;;;;;7.50;1.20;;;17.20;99.90;;;;;;4960111;28;20129;-74
2023/08/31 07:30:59;;;;;;;8.93;1.33;;;17.40;99.90;;;;;;4999884;28;20061;-75
2023/08/31 07:33:25;;;;;;;8.05;1.48;;;17.60;99.90;;;;;;4965673;28;20042;-75
2023/08/31 07:35:52;;;;;;;7.13;1.20;;;17.70;99.90;;;;;;5006674;28;20057;-75
2023/08/31 07:38:18;;;;;;;7.05;1.20;;;17.90;99.90;;;;;;4964836;28;20061;-76
2023/08/31 07:40:44;;;;;;;7.28;1.08;;;18.00;99.90;;;;;;5001753;28;20617;-74
2023/08/31 07:43:10;;;;;;;8.40;1.50;;;17.80;99.90;;;;;;4973851;28;20068;-75
2023/08/31 07:45:36;;;;;;;8.20;1.35;;;17.30;99.90;;;;;;5005727;28;20057;-73
2023/08/31 07:48:03;;;;;;;7.03;1.20;;;17.70;99.90;;;;;;4971724;28;20054;-74
2023/08/31 07:50:29;;;;;;;6.80;0.95;;;17.70;99.90;;;;;;5007178;28;20062;-74
2023/08/31 07:52:55;;;;;;;7.13;1.30;;;18.00;99.90;;;;;;4945998;28;103430;-74
2023/08/31 07:55:21;;;;;;;7.25;1.10;;;18.00;99.90;;;;;;4978234;28;20050;-74
2023/08/31 07:57:47;;;;;;;8.48;1.17;;;17.70;99.90;;;;;;4965035;28;20054;-73
2023/08/31 08:00:14;;;;;;;7.30;1.00;;;17.50;99.90;;;;;;4981354;28;20057;-74
2023/08/31 08:02:40;;;;;;;8.63;1.42;;;17.80;99.90;;;;;;4977959;28;20041;-74
2023/08/31 08:05:07;;;;;;;8.38;1.30;;;18.20;99.90;;;;;;5016993;28;20061;-75
2023/08/31 08:07:33;;;;;;;7.65;1.40;;;18.50;99.90;;;;;;4957681;28;20508;-74
2023/08/31 08:09:59;;;;;;;8.60;1.30;;;18.80;99.90;;;;;;4997219;28;20054;-74
2023/08/31 08:12:25;;;;;;;6.95;1.25;;;18.80;99.90;;;;;;4952744;28;20597;-74
2023/08/31 08:14:51;;;;;;;6.90;1.40;;;18.80;99.90;;;;;;4996654;28;20046;-75
2023/08/31 08:17:17;;;;;;;9.77;1.52;;;19.20;99.90;;;;;;4937894;28;20035;-74
2023/08/31 08:19:44;;;;;;;7.18;1.20;;;19.40;99.90;;;;;;4965423;28;20065;-74
2023/08/31 08:22:10;;;;;;;7.13;1.10;;;19.50;99.90;;;;;;4950906;28;20059;-74
2023/08/31 08:24:36;;;;;;;5.50;1.00;;;19.70;99.90;;;;;;4974430;28;20054;-74
2023/08/31 08:27:02;;;;;;;5.43;0.85;;;19.40;99.90;;;;;;4948989;28;20058;-73
2023/08/31 08:29:28;;;;;;;5.43;0.93;;;19.40;99.90;;;;;;4993261;28;20055;-73
2023/08/31 08:31:54;;;;;;;7.40;1.30;;;19.50;99.90;;;;;;4948454;28;20046;-75
2023/08/31 08:34:20;;;;;;;5.38;0.82;;;19.80;99.90;;;;;;4998083;28;20418;-75
2023/08/31 08:36:46;;;;;;;10.38;1.10;;;20.10;99.90;;;;;;4971507;28;20046;-73
2023/08/31 08:39:13;;;;;;;7.93;0.98;;;20.30;99.90;;;;;;4929582;28;20065;-73
2023/08/31 08:41:40;;;;;;;6.38;1.17;;;20.50;99.90;;;;;;4982434;28;20057;-73
2023/08/31 08:44:08;;;;;;;4.43;0.80;;;20.70;99.90;;;;;;4957978;28;20046;-73
2023/08/31 08:46:34;;;;;;;5.93;0.85;;;20.60;99.90;;;;;;4987155;28;20494;-73
2023/08/31 08:49:02;;;;;;;7.80;1.13;;;20.60;99.90;;;;;;4924937;28;20039;-73
2023/08/31 08:51:31;;;;;;;5.60;1.00;;;20.40;99.90;;;;;;4986131;28;20054;-74
2023/08/31 08:53:59;;;;;;;4.50;0.80;;;20.60;99.90;;;;;;4925967;28;171753;-73
2023/08/31 08:56:26;;;;;;;4.75;0.82;;;20.70;99.90;;;;;;4985787;28;20050;-73
2023/08/31 08:58:52;;;;;;;6.32;0.90;;;20.70;99.90;;;;;;4959154;28;20060;-73
2023/08/31 09:01:22;;;;;;;6.45;0.95;;;20.50;99.90;;;;;;5003700;28;20061;-74
2023/08/31 09:03:49;;;;;;;5.00;0.85;;;19.90;99.90;;;;;;4963612;28;20043;-73
2023/08/31 09:06:15;;;;;;;4.95;0.80;;;19.50;99.90;;;;;;4983837;28;20054;-74
2023/08/31 09:08:41;;;;;;;3.92;0.70;;;19.10;99.90;;;;;;4955554;28;20434;-74
2023/08/31 09:11:08;;;;;;;6.10;0.80;;;18.70;99.90;;;;;;4984374;28;20054;-73
2023/08/31 09:13:34;;;;;;;4.43;0.70;;;18.60;99.90;;;;;;4944391;28;20511;-74
2023/08/31 09:16:01;;;;;;;7.00;1.00;;;18.40;99.90;;;;;;4980380;28;20078;-73
2023/08/31 09:18:29;;;;;;;6.72;0.90;;;18.30;99.90;;;;;;4971203;28;20060;-74
2023/08/31 09:20:58;;;;;;;6.75;0.93;;;18.10;99.90;;;;;;5004761;28;20049;-73
2023/08/31 09:23:25;;;;;;;5.50;0.80;;;17.90;99.90;;;;;;4954654;28;20065;-73
2023/08/31 09:25:54;;;;;;;6.95;0.90;;;17.80;99.90;;;;;;5004757;28;20071;-74
2023/08/31 09:28:22;;;;;;;10.07;0.98;;;17.40;99.90;;;;;;4942607;28;20042;-74
2023/08/31 09:30:52;;;;;;;9.32;0.88;;;16.70;99.90;;;;;;5003176;28;20050;-75
2023/08/31 09:33:20;;;;;;;6.60;0.88;;;16.00;99.90;;;;;;4967939;28;20151;-76
2023/08/31 09:35:51;;;;;;;6.22;1.10;;;15.50;99.90;;;;;;5006194;28;20510;-75
2023/08/31 09:38:18;;;;;;;5.07;0.82;;;15.20;99.90;;;;;;4956546;28;20046;-74
2023/08/31 09:40:45;;;;;;;7.30;0.88;;;15.10;99.90;;;;;;4999835;28;20053;-74
2023/08/31 09:43:11;;;;;;;5.18;1.10;;;15.30;99.90;;;;;;4944023;28;20185;-74
2023/08/31 09:45:38;;;;;;;6.22;0.90;;;16.60;99.90;;;;;;4995890;28;20050;-74
2023/08/31 09:48:05;;;;;;;5.47;0.90;;;17.80;99.90;;;;;;4938191;28;20047;-74
2023/08/31 09:50:33;;;;;;;4.22;0.77;;;18.90;99.90;;;;;;4958865;28;20073;-74
2023/08/31 09:53:04;;;;;;;5.30;0.80;;;19.90;99.90;;;;;;4909925;28;152642;-74
2023/08/31 09:55:35;;;;;;;5.80;0.90;;;20.80;99.90;;;;;;4971682;28;20065;-74
2023/08/31 09:58:04;;;;;;;8.35;0.93;;;21.50;99.90;;;;;;4942537;28;20058;-73
2023/08/31 10:00:31;;;;;;;6.00;0.82;;;22.10;99.90;;;;;;4976570;28;20504;-75
2023/08/31 10:03:01;;;;;;;7.00;0.90;;;22.70;99.90;;;;;;4934757;28;20057;-73
2023/08/31 10:05:28;;;;;;;4.63;0.88;;;23.40;99.90;;;;;;4988457;28;20055;-73
2023/08/31 10:07:54;;;;;;;5.78;0.90;;;23.80;99.90;;;;;;4951553;28;20050;-74
2023/08/31 10:10:22;;;;;;;5.45;0.93;;;24.00;99.90;;;;;;4974239;28;20058;-74
2023/08/31 10:12:49;;;;;;;6.32;0.90;;;23.50;99.90;;;;;;4952738;28;20061;-74
2023/08/31 10:15:16;;;;;;;5.13;0.80;;;23.10;99.90;;;;;;5002924;28;20046;-74
2023/08/31 10:17:42;;;;;;;5.75;0.90;;;23.30;99.90;;;;;;4958648;28;20122;-72
2023/08/31 10:20:10;;;;;;;5.32;0.90;;;23.10;99.40;;;;;;4985437;28;20073;-73
2023/08/31 10:22:37;;;;;;;4.13;0.80;;;22.80;97.60;;;;;;4944985;28;20069;-74
2023/08/31 10:25:08;;;;;;;3.75;0.70;;;22.00;99.90;;;;;;4985966;28;20057;-74
2023/08/31 10:27:42;;;;;;;3.78;0.73;;;21.30;99.90;;;;;;4946254;28;20136;-75
2023/08/31 10:30:24;;;;;;;4.95;1.00;;;21.00;99.90;;;;;;4979714;28;20058;-74
2023/08/31 10:33:08;;;;;;;6.57;0.88;;;21.60;99.40;;;;;;4951178;28;20057;-74
2023/08/31 10:35:42;;;;;;;5.90;0.98;;;21.20;98.10;;;;;;4996136;28;20059;-73
2023/08/31 10:38:32;;;;;;;6.68;0.93;;;20.90;99.90;;;;;;4916433;28;20045;-73
2023/08/31 10:41:08;;;;;;;8.40;0.98;;;21.20;99.90;;;;;;4982089;28;20058;-74
2023/08/31 10:43:44;;;;;;;5.35;0.88;;;21.40;98.40;;;;;;4920337;28;20054;-73
2023/08/31 10:46:19;;;;;;;5.25;0.90;;;21.50;98.60;;;;;;4981308;28;20057;-73
2023/08/31 10:48:56;;;;;;;5.88;1.00;;;21.90;99.00;;;;;;4923736;28;20055;-72
2023/08/31 10:51:26;;;;;;;5.72;1.05;;;22.10;97.30;;;;;;4980306;28;20062;-72
2023/08/31 10:54:06;;;;;;;4.95;0.88;;;21.00;99.10;;;;;;4926383;28;165895;-73
2023/08/31 10:56:33;;;;;;;4.50;0.90;;;21.50;99.00;;;;;;4983624;28;21815;-72
2023/08/31 10:59:00;;;;;;;4.82;0.80;;;21.90;97.70;;;;;;4941102;28;20069;-72
2023/08/31 11:01:52;;;;;;;5.03;0.80;;;22.10;97.20;;;;;;5005025;28;20070;-73
2023/08/31 11:04:19;;;;;;;6.13;0.90;;;22.10;96.90;;;;;;4913194;28;20076;-72
2023/08/31 11:06:45;;;;;;;7.30;0.93;;;22.40;99.20;;;;;;4991017;28;20065;-72
2023/08/31 11:09:20;;;;;;;4.43;0.77;;;22.50;97.80;;;;;;4974694;28;20045;-72
2023/08/31 11:11:47;;;;;;;6.85;1.00;;;22.60;96.90;;;;;;4991246;28;20065;-71
2023/08/31 11:14:13;;;;;;;5.50;0.90;;;23.00;97.70;;;;;;4961086;28;20057;-72
2023/08/31 11:16:40;;;;;;;4.25;0.80;;;23.30;98.20;;;;;;5003154;28;20056;-71
2023/08/31 11:19:06;;;;;;;6.00;0.90;;;23.10;96.70;;;;;;4975227;28;20182;-72
2023/08/31 11:21:32;;;;;;;4.93;0.75;;;22.70;97.10;;;;;;4999661;28;20058;-73
2023/08/31 11:23:59;;;;;;;6.07;1.05;;;22.10;97.60;;;;;;4956988;28;20066;-73
2023/08/31 11:26:26;;;;;;;4.43;0.90;;;21.00;97.60;;;;;;4997706;28;20422;-74
2023/08/31 11:28:55;;;;;;;7.95;1.10;;;20.70;98.10;;;;;;4956876;28;20058;-73
2023/08/31 11:31:25;;;;;;;6.05;0.98;;;20.70;98.00;;;;;;5000563;28;20066;-74
2023/08/31 11:33:51;;;;;;;5.47;0.80;;;20.60;98.40;;;;;;4960110;28;20050;-74
2023/08/31 11:36:17;;;;;;;5.75;0.90;;;20.70;98.80;;;;;;4984827;28;20508;-73
2023/08/31 11:38:44;;;;;;;5.65;1.00;;;21.20;98.80;;;;;;4956331;28;20074;-72
2023/08/31 11:41:11;;;;;;;3.30;0.70;;;21.90;97.70;;;;;;5004238;28;20061;-73
2023/08/31 11:43:38;;;;;;;5.40;0.88;;;22.20;96.40;;;;;;4955259;28;20050;-72
2023/08/31 11:46:05;;;;;;;4.07;0.90;;;22.20;95.70;;;;;;5000509;28;20058;-73
2023/08/31 11:48:32;;;;;;;4.90;1.02;;;22.50;96.90;;;;;;4945345;28;20057;-72
2023/08/31 11:50:59;;;;;;;4.18;0.85;;;22.70;96.60;;;;;;4997225;28;20062;-72
2023/08/31 11:53:26;;;;;;;4.20;0.80;;;22.60;95.40;;;;;;4953280;28;206531;-71
2023/08/31 11:55:53;;;;;;;5.80;0.90;;;22.50;96.40;;;;;;4994205;28;20060;-73
2023/08/31 11:58:20;;;;;;;5.63;0.90;;;23.00;96.70;;;;;;4950289;28;20041;-72
2023/08/31 12:00:56;;;;;;;6.03;1.00;;;23.20;96.40;;;;;;4977990;28;20126;-72
2023/08/31 12:03:22;;;;;;;5.53;1.00;;;23.20;95.10;;;;;;4948576;28;20427;-73
2023/08/31 12:05:51;;;;;;;4.80;1.00;;;23.30;95.70;;;;;;4984438;28;20428;-72
2023/08/31 12:08:27;;;;;;;5.28;0.90;;;23.40;95.90;;;;;;4958065;28;20058;-74
2023/08/31 12:10:55;;;;;;;5.50;1.10;;;23.50;95.80;;;;;;4997356;28;20134;-73
2023/08/31 12:13:27;;;;;;;6.88;1.20;;;23.70;96.00;;;;;;4954864;28;20049;-72
2023/08/31 12:15:53;;;;;;;5.32;1.20;;;24.00;95.90;;;;;;4987669;28;20038;-74
2023/08/31 12:18:19;;;;;;;4.80;0.82;;;23.80;95.90;;;;;;4968294;28;20050;-72
2023/08/31 12:20:55;;;;;;;8.20;1.05;;;23.40;95.50;;;;;;5005174;28;20061;-74
2023/08/31 12:23:22;;;;;;;7.18;0.95;;;22.80;95.00;;;;;;4952901;28;20109;-72
2023/08/31 12:25:53;;;;;;;5.80;0.95;;;22.10;96.00;;;;;;4995584;28;20076;-73
2023/08/31 12:28:21;;;;;;;8.35;1.27;;;21.50;96.60;;;;;;4975549;28;20057;-76
2023/08/31 12:30:52;;;;;;;6.78;1.15;;;20.70;98.90;;;;;;5003747;28;20057;-76
2023/08/31 12:33:21;;;;;;;5.80;1.40;;;19.30;99.90;;;;;;4941925;28;20062;-75
2023/08/31 12:35:47;;;;;;;6.88;1.20;;;18.30;99.90;;;;;;5001645;28;20125;-76
2023/08/31 12:38:14;;;;;;;7.70;1.13;;;18.00;99.90;;;;;;4958828;28;20057;-75
2023/08/31 12:40:40;;;;;;;4.68;0.90;;;18.10;99.90;;;;;;4996136;28;20038;-73
2023/08/31 12:43:06;;;;;;;7.63;1.25;;;18.10;99.90;;;;;;4960797;28;20581;-74
2023/08/31 12:45:33;;;;;;;6.45;1.10;;;18.00;99.90;;;;;;4999402;28;20519;-75